sensor_id;sensor_type;location;lat;lon;timestamp;pressure;altitude;pressure_sealevel;temperature;humidity
60489;BME280;46331;49.252;8.904;2023-03-29T00:00:23;100119.63;;;7.39;69.04
60489;BME280;46331;49.252;8.904;2023-03-29T00:01:04;100107.88;;;7.28;67.81
60489;BME280;46331;49.252;8.904;2023-03-29T00:01:46;100112.38;;;7.21;68.42
60489;BME280;46331;49.252;8.904;2023-03-29T00:02:27;100112.16;;;7.23;67.96
60489;BME280;46331;49.252;8.904;2023-03-29T00:03:10;100111.13;;;7.24;67.59
60489;BME280;46331;49.252;8.904;2023-03-29T00:03:53;100117.22;;;7.24;67.49
60489;BME280;46331;49.252;8.904;2023-03-29T00:04:34;100115.97;;;7.27;67.41
60489;BME280;46331;49.252;8.904;2023-03-29T00:05:15;100116.81;;;7.27;67.41
60489;BME280;46331;49.252;8.904;2023-03-29T00:06:00;100111.94;;;7.24;66.58
60489;BME280;46331;49.252;8.904;2023-03-29T00:06:45;100109.53;;;7.23;67.03
60489;BME280;46331;49.252;8.904;2023-03-29T00:07:28;100113.16;;;7.22;67.53
60489;BME280;46331;49.252;8.904;2023-03-29T00:08:09;100114.78;;;7.23;67.15
60489;BME280;46331;49.252;8.904;2023-03-29T00:08:53;100118.22;;;7.23;67.53
60489;BME280;46331;49.252;8.904;2023-03-29T00:09:34;100113.38;;;7.20;68.30
60489;BME280;46331;49.252;8.904;2023-03-29T00:10:15;100114.38;;;7.19;68.27
60489;BME280;46331;49.252;8.904;2023-03-29T00:10:56;100110.13;;;7.18;68.62
60489;BME280;46331;49.252;8.904;2023-03-29T00:11:38;100113.16;;;7.08;69.15
60489;BME280;46331;49.252;8.904;2023-03-29T00:12:18;100114.78;;;7.09;68.93
60489;BME280;46331;49.252;8.904;2023-03-29T00:13:00;100109.53;;;7.03;69.69
60489;BME280;46331;49.252;8.904;2023-03-29T00:13:41;100121.28;;;7.00;69.76
60489;BME280;46331;49.252;8.904;2023-03-29T00:14:22;100125.53;;;6.94;69.97
60489;BME280;46331;49.252;8.904;2023-03-29T00:15:04;100121.91;;;6.95;70.00
60489;BME280;46331;49.252;8.904;2023-03-29T00:15:45;100126.56;;;7.00;69.67
60489;BME280;46331;49.252;8.904;2023-03-29T00:16:26;100123.34;;;6.98;70.32
60489;BME280;46331;49.252;8.904;2023-03-29T00:17:06;100120.06;;;6.96;70.62
60489;BME280;46331;49.252;8.904;2023-03-29T00:17:47;100122.72;;;6.96;70.56
60489;BME280;46331;49.252;8.904;2023-03-29T00:18:27;100116.84;;;6.94;70.89
60489;BME280;46331;49.252;8.904;2023-03-29T00:19:08;100112.38;;;6.88;71.20
60489;BME280;46331;49.252;8.904;2023-03-29T00:19:49;100114.81;;;6.89;71.28
60489;BME280;46331;49.252;8.904;2023-03-29T00:20:29;100117.25;;;6.84;71.69
60489;BME280;46331;49.252;8.904;2023-03-29T00:21:10;100118.06;;;6.78;71.31
60489;BME280;46331;49.252;8.904;2023-03-29T00:21:52;100108.72;;;6.75;71.95
60489;BME280;46331;49.252;8.904;2023-03-29T00:22:33;100105.09;;;6.76;72.59
60489;BME280;46331;49.252;8.904;2023-03-29T00:23:13;100112.16;;;6.76;71.67
60489;BME280;46331;49.252;8.904;2023-03-29T00:23:55;100112.19;;;6.83;72.18
60489;BME280;46331;49.252;8.904;2023-03-29T00:24:35;100119.88;;;6.84;72.21
60489;BME280;46331;49.252;8.904;2023-03-29T00:25:16;100113.59;;;6.85;71.99
60489;BME280;46331;49.252;8.904;2023-03-29T00:25:57;100117.22;;;6.77;71.98
60489;BME280;46331;49.252;8.904;2023-03-29T00:26:37;100117.03;;;6.79;72.10
60489;BME280;46331;49.252;8.904;2023-03-29T00:27:18;100118.06;;;6.78;71.33
60489;BME280;46331;49.252;8.904;2023-03-29T00:27:59;100116.03;;;6.80;71.39
60489;BME280;46331;49.252;8.904;2023-03-29T00:28:40;100115.63;;;6.83;71.50
60489;BME280;46331;49.252;8.904;2023-03-29T00:29:21;100124.53;;;6.75;71.89
60489;BME280;46331;49.252;8.904;2023-03-29T00:30:02;100122.94;;;6.81;71.30
60489;BME280;46331;49.252;8.904;2023-03-29T00:30:44;100120.50;;;6.79;72.43
60489;BME280;46331;49.252;8.904;2023-03-29T00:31:25;100120.50;;;6.79;71.73
60489;BME280;46331;49.252;8.904;2023-03-29T00:32:06;100122.94;;;6.81;72.42
60489;BME280;46331;49.252;8.904;2023-03-29T00:32:47;100120.09;;;6.83;72.45
60489;BME280;46331;49.252;8.904;2023-03-29T00:33:27;100126.16;;;6.76;72.33
60489;BME280;46331;49.252;8.904;2023-03-29T00:34:08;100116.44;;;6.70;72.79
60489;BME280;46331;49.252;8.904;2023-03-29T00:34:49;100112.38;;;6.74;73.41
60489;BME280;46331;49.252;8.904;2023-03-29T00:35:30;100110.13;;;6.71;72.52
60489;BME280;46331;49.252;8.904;2023-03-29T00:36:11;100114.19;;;6.74;72.89
60489;BME280;46331;49.252;8.904;2023-03-29T00:36:52;100111.97;;;6.77;73.12
60489;BME280;46331;49.252;8.904;2023-03-29T00:37:37;100116.81;;;6.80;73.59
60489;BME280;46331;49.252;8.904;2023-03-29T00:38:18;100112.59;;;6.79;73.36
60489;BME280;46331;49.252;8.904;2023-03-29T00:38:59;100107.91;;;6.82;73.17
60489;BME280;46331;49.252;8.904;2023-03-29T00:39:40;100114.63;;;6.84;73.08
60489;BME280;46331;49.252;8.904;2023-03-29T00:40:21;100101.84;;;6.81;72.90
60489;BME280;46331;49.252;8.904;2023-03-29T00:41:02;100106.72;;;6.84;73.21
60489;BME280;46331;49.252;8.904;2023-03-29T00:41:44;100100.19;;;6.87;73.30
60489;BME280;46331;49.252;8.904;2023-03-29T00:42:25;100091.09;;;6.83;72.47
60489;BME280;46331;49.252;8.904;2023-03-29T00:43:09;100097.19;;;6.76;71.32
60489;BME280;46331;49.252;8.904;2023-03-29T00:43:56;100093.50;;;6.77;71.01
60489;BME280;46331;49.252;8.904;2023-03-29T00:45:46;100091.28;;;6.74;71.13
60489;BME280;46331;49.252;8.904;2023-03-29T00:46:27;100091.28;;;6.74;71.49
60489;BME280;46331;49.252;8.904;2023-03-29T00:47:09;100088.44;;;6.69;70.26
60489;BME280;46331;49.252;8.904;2023-03-29T00:47:53;100086.81;;;6.68;70.37
60489;BME280;46331;49.252;8.904;2023-03-29T00:48:36;100088.03;;;6.72;70.04
60489;BME280;46331;49.252;8.904;2023-03-29T00:49:17;100085.19;;;6.74;70.34
60489;BME280;46331;49.252;8.904;2023-03-29T00:50:20;100083.59;;;6.79;70.26
60489;BME280;46331;49.252;8.904;2023-03-29T00:51:05;100079.91;;;6.80;70.00
60489;BME280;46331;49.252;8.904;2023-03-29T00:51:47;100083.78;;;6.85;70.10
60489;BME280;46331;49.252;8.904;2023-03-29T00:52:30;100073.44;;;6.83;70.13
60489;BME280;46331;49.252;8.904;2023-03-29T00:53:21;100080.13;;;6.79;70.25
60489;BME280;46331;49.252;8.904;2023-03-29T00:54:04;100073.84;;;6.73;69.66
60489;BME280;46331;49.252;8.904;2023-03-29T00:54:47;100078.50;;;6.85;69.40
60489;BME280;46331;49.252;8.904;2023-03-29T00:55:37;100081.56;;;6.82;69.74
60489;BME280;46331;49.252;8.904;2023-03-29T00:56:25;100082.78;;;6.86;70.07
60489;BME280;46331;49.252;8.904;2023-03-29T00:57:10;100073.63;;;6.88;69.78
60489;BME280;46331;49.252;8.904;2023-03-29T00:57:55;100075.47;;;6.88;69.53
60489;BME280;46331;49.252;8.904;2023-03-29T00:58:41;100071.00;;;6.88;69.61
60489;BME280;46331;49.252;8.904;2023-03-29T00:59:26;100075.25;;;6.89;70.43
60489;BME280;46331;49.252;8.904;2023-03-29T01:00:08;100074.84;;;6.92;70.82
60489;BME280;46331;49.252;8.904;2023-03-29T01:00:55;100075.88;;;6.85;70.41
60489;BME280;46331;49.252;8.904;2023-03-29T01:01:45;100071.81;;;6.95;70.70
60489;BME280;46331;49.252;8.904;2023-03-29T01:02:31;100072.00;;;6.94;70.29
60489;BME280;46331;49.252;8.904;2023-03-29T01:03:15;100068.56;;;6.93;71.14
60489;BME280;46331;49.252;8.904;2023-03-29T01:04:13;100072.81;;;7.01;70.95
60489;BME280;46331;49.252;8.904;2023-03-29T01:05:05;100071.59;;;7.04;71.14
60489;BME280;46331;49.252;8.904;2023-03-29T01:05:50;100070.78;;;7.03;70.74
60489;BME280;46331;49.252;8.904;2023-03-29T01:06:33;100059.41;;;7.09;70.63
60489;BME280;46331;49.252;8.904;2023-03-29T01:07:23;100063.47;;;7.12;70.04
60489;BME280;46331;49.252;8.904;2023-03-29T01:08:07;100065.72;;;7.15;70.32
60489;BME280;46331;49.252;8.904;2023-03-29T01:08:56;100054.31;;;7.14;70.12
60489;BME280;46331;49.252;8.904;2023-03-29T01:09:42;100064.66;;;7.16;69.75
60489;BME280;46331;49.252;8.904;2023-03-29T01:10:30;100054.94;;;7.16;69.48
60489;BME280;46331;49.252;8.904;2023-03-29T01:11:51;100053.31;;;7.15;69.43
60489;BME280;46331;49.252;8.904;2023-03-29T01:12:38;100053.53;;;7.14;69.28
60489;BME280;46331;49.252;8.904;2023-03-29T01:13:25;100054.31;;;7.14;69.30
60489;BME280;46331;49.252;8.904;2023-03-29T01:14:16;100054.72;;;7.11;68.75
60489;BME280;46331;49.252;8.904;2023-03-29T01:15:05;100053.31;;;7.15;68.79
60489;BME280;46331;49.252;8.904;2023-03-29T01:15:49;100049.69;;;7.16;68.32
60489;BME280;46331;49.252;8.904;2023-03-29T01:16:32;100051.47;;;7.16;68.24
60489;BME280;46331;49.252;8.904;2023-03-29T01:17:14;100050.28;;;7.19;68.91
60489;BME280;46331;49.252;8.904;2023-03-29T01:17:55;100048.63;;;7.18;68.77
60489;BME280;46331;49.252;8.904;2023-03-29T01:18:37;100042.34;;;7.19;68.11
60489;BME280;46331;49.252;8.904;2023-03-29T01:19:24;100053.09;;;7.24;68.44
60489;BME280;46331;49.252;8.904;2023-03-29T01:20:33;100042.34;;;7.19;68.22
60489;BME280;46331;49.252;8.904;2023-03-29T01:21:26;100046.41;;;7.21;68.05
60489;BME280;46331;49.252;8.904;2023-03-29T01:25:25;100042.75;;;7.22;68.29
60489;BME280;46331;49.252;8.904;2023-03-29T01:28:01;100031.00;;;7.18;68.13
60489;BME280;46331;49.252;8.904;2023-03-29T01:28:52;100032.00;;;7.17;68.34
60489;BME280;46331;49.252;8.904;2023-03-29T01:29:42;100031.59;;;7.20;68.27
60489;BME280;46331;49.252;8.904;2023-03-29T01:30:32;100031.22;;;7.16;68.26
60489;BME280;46331;49.252;8.904;2023-03-29T01:31:23;100029.78;;;7.14;67.94
60489;BME280;46331;49.252;8.904;2023-03-29T01:33:11;100023.09;;;7.11;68.45
60489;BME280;46331;49.252;8.904;2023-03-29T01:34:09;100014.16;;;7.12;68.29
60489;BME280;46331;49.252;8.904;2023-03-29T01:35:41;100014.97;;;7.13;68.56
60489;BME280;46331;49.252;8.904;2023-03-29T01:36:32;100015.59;;;7.08;68.08
60489;BME280;46331;49.252;8.904;2023-03-29T01:37:40;100008.47;;;7.15;68.20
60489;BME280;46331;49.252;8.904;2023-03-29T01:38:30;100007.72;;;7.02;68.37
60489;BME280;46331;49.252;8.904;2023-03-29T01:39:14;100009.09;;;7.11;68.21
60489;BME280;46331;49.252;8.904;2023-03-29T01:39:55;100006.25;;;7.12;68.65
60489;BME280;46331;49.252;8.904;2023-03-29T01:40:35;100001.56;;;7.14;68.25
60489;BME280;46331;49.252;8.904;2023-03-29T01:41:16;99996.94;;;7.16;68.80
60489;BME280;46331;49.252;8.904;2023-03-29T01:44:13;100003.19;;;7.22;68.55
60489;BME280;46331;49.252;8.904;2023-03-29T01:45:23;100007.66;;;7.22;67.98
60489;BME280;46331;49.252;8.904;2023-03-29T01:47:00;100006.44;;;7.18;68.53
60489;BME280;46331;49.252;8.904;2023-03-29T01:49:31;99998.31;;;7.26;67.67
60489;BME280;46331;49.252;8.904;2023-03-29T01:51:14;100000.31;;;7.30;67.88
60489;BME280;46331;49.252;8.904;2023-03-29T01:52:07;100006.00;;;7.34;67.35
60489;BME280;46331;49.252;8.904;2023-03-29T01:52:59;99991.78;;;7.35;67.35
60489;BME280;46331;49.252;8.904;2023-03-29T01:53:57;99990.75;;;7.36;67.25
60489;BME280;46331;49.252;8.904;2023-03-29T01:54:50;99989.75;;;7.37;67.78
60489;BME280;46331;49.252;8.904;2023-03-29T01:55:37;99991.56;;;7.37;67.51
60489;BME280;46331;49.252;8.904;2023-03-29T01:56:22;99995.00;;;7.37;67.97
60489;BME280;46331;49.252;8.904;2023-03-29T01:57:06;99987.91;;;7.38;68.06
60489;BME280;46331;49.252;8.904;2023-03-29T01:57:50;99992.16;;;7.39;68.04
60489;BME280;46331;49.252;8.904;2023-03-29T01:58:35;99992.56;;;7.42;68.70
60489;BME280;46331;49.252;8.904;2023-03-29T01:59:23;99988.09;;;7.43;68.55
60489;BME280;46331;49.252;8.904;2023-03-29T02:00:06;99997.81;;;7.42;68.70
60489;BME280;46331;49.252;8.904;2023-03-29T02:00:52;99996.81;;;7.43;68.81
60489;BME280;46331;49.252;8.904;2023-03-29T02:01:37;100000.03;;;7.45;68.55
60489;BME280;46331;49.252;8.904;2023-03-29T02:02:20;99996.59;;;7.45;68.31
60489;BME280;46331;49.252;8.904;2023-03-29T02:03:07;99992.13;;;7.45;68.12
60489;BME280;46331;49.252;8.904;2023-03-29T02:03:50;99991.34;;;7.45;68.53
60489;BME280;46331;49.252;8.904;2023-03-29T02:04:37;99997.41;;;7.45;68.98
60489;BME280;46331;49.252;8.904;2023-03-29T02:05:21;99996.03;;;7.43;68.47
60489;BME280;46331;49.252;8.904;2023-03-29T02:06:03;99996.59;;;7.45;68.07
60489;BME280;46331;49.252;8.904;2023-03-29T02:06:45;99998.44;;;7.44;68.42
60489;BME280;46331;49.252;8.904;2023-03-29T02:07:28;99992.97;;;7.46;68.15
60489;BME280;46331;49.252;8.904;2023-03-29T02:08:13;99993.34;;;7.49;68.03
60489;BME280;46331;49.252;8.904;2023-03-29T02:08:55;99993.13;;;7.51;68.06
60489;BME280;46331;49.252;8.904;2023-03-29T02:09:37;99990.50;;;7.51;67.71
60489;BME280;46331;49.252;8.904;2023-03-29T02:10:20;99993.75;;;7.46;67.38
60489;BME280;46331;49.252;8.904;2023-03-29T02:11:02;99988.66;;;7.51;67.82
60489;BME280;46331;49.252;8.904;2023-03-29T02:11:45;99995.56;;;7.52;67.82
60489;BME280;46331;49.252;8.904;2023-03-29T02:12:26;99992.34;;;7.50;67.38
60489;BME280;46331;49.252;8.904;2023-03-29T02:13:08;99991.28;;;7.51;67.84
60489;BME280;46331;49.252;8.904;2023-03-29T02:13:48;99985.22;;;7.51;68.18
60489;BME280;46331;49.252;8.904;2023-03-29T02:14:29;99986.00;;;7.51;67.89
60489;BME280;46331;49.252;8.904;2023-03-29T02:15:12;99993.72;;;7.53;68.05
60489;BME280;46331;49.252;8.904;2023-03-29T02:15:53;99988.44;;;7.53;67.68
60489;BME280;46331;49.252;8.904;2023-03-29T02:16:37;99986.84;;;7.52;67.72
60489;BME280;46331;49.252;8.904;2023-03-29T02:17:20;99992.53;;;7.49;68.42
60489;BME280;46331;49.252;8.904;2023-03-29T02:18:01;99984.00;;;7.54;68.29
60489;BME280;46331;49.252;8.904;2023-03-29T02:18:45;99980.53;;;7.53;68.60
60489;BME280;46331;49.252;8.904;2023-03-29T02:19:27;99988.03;;;7.56;67.90
60489;BME280;46331;49.252;8.904;2023-03-29T02:20:20;99983.16;;;7.60;67.98
60489;BME280;46331;49.252;8.904;2023-03-29T02:21:03;99983.38;;;7.58;67.60
60489;BME280;46331;49.252;8.904;2023-03-29T02:21:54;99980.72;;;7.58;67.87
60489;BME280;46331;49.252;8.904;2023-03-29T02:22:41;99983.38;;;7.58;67.75
60489;BME280;46331;49.252;8.904;2023-03-29T02:23:30;99985.16;;;7.58;67.62
60489;BME280;46331;49.252;8.904;2023-03-29T02:24:15;99987.22;;;7.56;67.11
60489;BME280;46331;49.252;8.904;2023-03-29T02:24:58;99975.66;;;7.57;67.68
60489;BME280;46331;49.252;8.904;2023-03-29T02:25:41;99981.34;;;7.54;67.61
60489;BME280;46331;49.252;8.904;2023-03-29T02:26:23;99983.16;;;7.53;67.20
60489;BME280;46331;49.252;8.904;2023-03-29T02:27:04;99989.28;;;7.54;66.99
60489;BME280;46331;49.252;8.904;2023-03-29T02:27:44;99983.59;;;7.50;67.13
60489;BME280;46331;49.252;8.904;2023-03-29T02:28:26;99981.78;;;7.50;67.37
60489;BME280;46331;49.252;8.904;2023-03-29T02:29:07;99981.78;;;7.50;67.28
60489;BME280;46331;49.252;8.904;2023-03-29T02:29:49;99974.69;;;7.44;67.52
60489;BME280;46331;49.252;8.904;2023-03-29T02:31:33;99968.19;;;7.47;68.03
60489;BME280;46331;49.252;8.904;2023-03-29T02:32:42;99970.00;;;7.46;67.63
60489;BME280;46331;49.252;8.904;2023-03-29T02:34:32;99962.72;;;7.42;68.03
60489;BME280;46331;49.252;8.904;2023-03-29T02:35:21;99966.38;;;7.41;68.14
60489;BME280;46331;49.252;8.904;2023-03-29T02:36:13;99959.09;;;7.36;67.91
60489;BME280;46331;49.252;8.904;2023-03-29T02:36:58;99959.50;;;7.33;67.69
60489;BME280;46331;49.252;8.904;2023-03-29T02:37:41;99968.03;;;7.35;67.69
60489;BME280;46331;49.252;8.904;2023-03-29T02:38:25;99965.41;;;7.35;67.87
60489;BME280;46331;49.252;8.904;2023-03-29T02:39:09;99957.69;;;7.33;68.02
60489;BME280;46331;49.252;8.904;2023-03-29T02:39:53;99965.19;;;7.30;67.84
60489;BME280;46331;49.252;8.904;2023-03-29T02:40:35;99959.13;;;7.29;67.91
60489;BME280;46331;49.252;8.904;2023-03-29T02:41:18;99957.13;;;7.25;68.30
60489;BME280;46331;49.252;8.904;2023-03-29T02:42:00;99950.41;;;7.22;68.03
60489;BME280;46331;49.252;8.904;2023-03-29T02:42:43;99952.47;;;7.20;68.49
60489;BME280;46331;49.252;8.904;2023-03-29T02:43:26;99949.63;;;7.22;67.92
60489;BME280;46331;49.252;8.904;2023-03-29T02:44:10;99947.56;;;7.24;68.35
60489;BME280;46331;49.252;8.904;2023-03-29T02:44:55;99952.47;;;7.20;68.42
60489;BME280;46331;49.252;8.904;2023-03-29T02:45:38;99951.03;;;7.24;68.66
60489;BME280;46331;49.252;8.904;2023-03-29T02:46:20;99944.34;;;7.22;68.42
60489;BME280;46331;49.252;8.904;2023-03-29T02:47:06;99949.03;;;7.20;68.41
60489;BME280;46331;49.252;8.904;2023-03-29T02:47:53;99949.00;;;7.26;68.52
60489;BME280;46331;49.252;8.904;2023-03-29T02:48:37;99949.78;;;7.27;68.68
60489;BME280;46331;49.252;8.904;2023-03-29T02:49:18;99945.13;;;7.29;68.54
60489;BME280;46331;49.252;8.904;2023-03-29T02:49:58;99939.44;;;7.25;69.02
60489;BME280;46331;49.252;8.904;2023-03-29T02:50:41;99941.88;;;7.27;68.31
60489;BME280;46331;49.252;8.904;2023-03-29T02:51:28;99945.16;;;7.22;67.99
60489;BME280;46331;49.252;8.904;2023-03-29T02:52:14;99942.34;;;7.17;68.31
60489;BME280;46331;49.252;8.904;2023-03-29T02:53:01;99944.97;;;7.17;68.48
60489;BME280;46331;49.252;8.904;2023-03-29T02:53:48;99944.75;;;7.19;68.71
60489;BME280;46331;49.252;8.904;2023-03-29T02:54:31;99939.50;;;7.19;68.69
60489;BME280;46331;49.252;8.904;2023-03-29T02:55:14;99938.28;;;7.14;68.50
60489;BME280;46331;49.252;8.904;2023-03-29T02:55:56;99937.91;;;7.11;69.23
60489;BME280;46331;49.252;8.904;2023-03-29T02:56:48;99937.06;;;7.17;68.69
60489;BME280;46331;49.252;8.904;2023-03-29T02:57:29;99930.56;;;7.20;69.22
60489;BME280;46331;49.252;8.904;2023-03-29T02:58:12;99930.56;;;7.20;69.46
60489;BME280;46331;49.252;8.904;2023-03-29T02:58:54;99932.78;;;7.23;69.22
60489;BME280;46331;49.252;8.904;2023-03-29T02:59:35;99931.16;;;7.22;69.20
60489;BME280;46331;49.252;8.904;2023-03-29T03:00:18;99931.97;;;7.22;69.44
60489;BME280;46331;49.252;8.904;2023-03-29T03:01:00;99926.09;;;7.20;69.20
60489;BME280;46331;49.252;8.904;2023-03-29T03:01:41;99931.97;;;7.22;68.78
60489;BME280;46331;49.252;8.904;2023-03-29T03:02:25;99933.78;;;7.22;69.19
60489;BME280;46331;49.252;8.904;2023-03-29T03:03:08;99934.59;;;7.22;68.94
60489;BME280;46331;49.252;8.904;2023-03-29T03:03:49;99934.59;;;7.22;69.10
60489;BME280;46331;49.252;8.904;2023-03-29T03:04:30;99936.44;;;7.22;69.08
60489;BME280;46331;49.252;8.904;2023-03-29T03:05:12;99937.03;;;7.24;69.53
60489;BME280;46331;49.252;8.904;2023-03-29T03:05:53;99936.00;;;7.25;68.91
60489;BME280;46331;49.252;8.904;2023-03-29T03:06:33;99936.19;;;7.30;68.98
60489;BME280;46331;49.252;8.904;2023-03-29T03:07:16;99932.31;;;7.32;69.16
60489;BME280;46331;49.252;8.904;2023-03-29T03:07:56;99935.75;;;7.33;69.23
60489;BME280;46331;49.252;8.904;2023-03-29T03:08:37;99931.31;;;7.33;69.21
60489;BME280;46331;49.252;8.904;2023-03-29T03:09:18;99928.47;;;7.35;69.34
60489;BME280;46331;49.252;8.904;2023-03-29T03:10:00;99928.28;;;7.30;69.56
60489;BME280;46331;49.252;8.904;2023-03-29T03:10:43;99921.97;;;7.31;69.49
60489;BME280;46331;49.252;8.904;2023-03-29T03:11:25;99926.03;;;7.33;69.61
60489;BME280;46331;49.252;8.904;2023-03-29T03:12:06;99925.22;;;7.33;69.14
60489;BME280;46331;49.252;8.904;2023-03-29T03:12:47;99928.06;;;7.31;69.28
60489;BME280;46331;49.252;8.904;2023-03-29T03:13:28;99925.22;;;7.33;68.73
60489;BME280;46331;49.252;8.904;2023-03-29T03:14:09;99922.38;;;7.34;69.69
60489;BME280;46331;49.252;8.904;2023-03-29T03:14:49;99934.75;;;7.34;70.77
60489;BME280;46331;49.252;8.904;2023-03-29T03:15:31;99931.69;;;7.37;71.01
60489;BME280;46331;49.252;8.904;2023-03-29T03:16:14;99929.66;;;7.39;70.16
60489;BME280;46331;49.252;8.904;2023-03-29T03:16:55;99931.28;;;7.40;70.27
60489;BME280;46331;49.252;8.904;2023-03-29T03:17:37;99924.38;;;7.39;70.46
60489;BME280;46331;49.252;8.904;2023-03-29T03:18:19;99921.72;;;7.39;70.37
60489;BME280;46331;49.252;8.904;2023-03-29T03:18:59;99925.41;;;7.38;70.50
60489;BME280;46331;49.252;8.904;2023-03-29T03:19:41;99930.47;;;7.40;70.85
60489;BME280;46331;49.252;8.904;2023-03-29T03:20:24;99923.75;;;7.44;69.77
60489;BME280;46331;49.252;8.904;2023-03-29T03:21:05;99926.16;;;7.45;70.45
60489;BME280;46331;49.252;8.904;2023-03-29T03:21:46;99925.16;;;7.46;70.30
60489;BME280;46331;49.252;8.904;2023-03-29T03:22:28;99928.81;;;7.45;69.44
60489;BME280;46331;49.252;8.904;2023-03-29T03:23:09;99929.63;;;7.46;70.22
60489;BME280;46331;49.252;8.904;2023-03-29T03:23:50;99927.22;;;7.44;70.05
60489;BME280;46331;49.252;8.904;2023-03-29T03:24:31;99932.28;;;7.39;70.03
60489;BME280;46331;49.252;8.904;2023-03-29T03:25:16;99930.28;;;7.34;70.81
60489;BME280;46331;49.252;8.904;2023-03-29T03:25:58;99930.06;;;7.36;70.72
60489;BME280;46331;49.252;8.904;2023-03-29T03:26:39;99922.78;;;7.38;70.73
60489;BME280;46331;49.252;8.904;2023-03-29T03:27:21;99925.19;;;7.40;71.08
60489;BME280;46331;49.252;8.904;2023-03-29T03:28:01;99926.41;;;7.37;70.57
60489;BME280;46331;49.252;8.904;2023-03-29T03:28:42;99942.25;;;7.37;71.07
60489;BME280;46331;49.252;8.904;2023-03-29T03:29:29;99932.13;;;7.34;70.71
60489;BME280;46331;49.252;8.904;2023-03-29T03:30:13;99931.09;;;7.35;71.08
60489;BME280;46331;49.252;8.904;2023-03-29T03:31:19;99935.19;;;7.31;71.22
60489;BME280;46331;49.252;8.904;2023-03-29T03:32:31;99934.38;;;7.30;71.83
60489;BME280;46331;49.252;8.904;2023-03-29T03:33:32;99936.19;;;7.30;72.09
60489;BME280;46331;49.252;8.904;2023-03-29T03:34:32;99926.88;;;7.27;72.25
60489;BME280;46331;49.252;8.904;2023-03-29T03:35:14;99933.97;;;7.27;72.37
60489;BME280;46331;49.252;8.904;2023-03-29T03:35:55;99930.75;;;7.25;72.60
60489;BME280;46331;49.252;8.904;2023-03-29T03:36:36;99930.53;;;7.26;73.35
60489;BME280;46331;49.252;8.904;2023-03-29T03:37:17;99932.38;;;7.26;72.73
60489;BME280;46331;49.252;8.904;2023-03-29T03:37:59;99922.81;;;7.25;73.11
60489;BME280;46331;49.252;8.904;2023-03-29T03:38:39;99921.00;;;7.25;73.58
60489;BME280;46331;49.252;8.904;2023-03-29T03:39:21;99921.59;;;7.27;73.21
60489;BME280;46331;49.252;8.904;2023-03-29T03:40:02;99921.59;;;7.27;73.39
60489;BME280;46331;49.252;8.904;2023-03-29T03:40:43;99918.56;;;7.24;73.53
60489;BME280;46331;49.252;8.904;2023-03-29T03:41:24;99916.97;;;7.23;73.35
60489;BME280;46331;49.252;8.904;2023-03-29T03:42:05;99923.41;;;7.27;73.53
60489;BME280;46331;49.252;8.904;2023-03-29T03:42:46;99920.19;;;7.25;73.46
60489;BME280;46331;49.252;8.904;2023-03-29T03:43:27;99924.25;;;7.27;73.51
60489;BME280;46331;49.252;8.904;2023-03-29T03:44:09;99925.47;;;7.25;73.77
60489;BME280;46331;49.252;8.904;2023-03-29T03:44:51;99917.56;;;7.25;73.86
60489;BME280;46331;49.252;8.904;2023-03-29T03:45:49;99912.06;;;7.26;73.24
60489;BME280;46331;49.252;8.904;2023-03-29T03:46:32;99913.06;;;7.25;73.54
60489;BME280;46331;49.252;8.904;2023-03-29T03:47:13;99911.47;;;7.24;73.64
60489;BME280;46331;49.252;8.904;2023-03-29T03:47:54;99912.69;;;7.22;72.56
60489;BME280;46331;49.252;8.904;2023-03-29T03:48:53;99909.06;;;7.23;72.61
60489;BME280;46331;49.252;8.904;2023-03-29T03:49:42;99911.69;;;7.23;72.48
60489;BME280;46331;49.252;8.904;2023-03-29T03:50:23;99910.06;;;7.22;72.61
60489;BME280;46331;49.252;8.904;2023-03-29T03:51:04;99909.06;;;7.23;71.99
60489;BME280;46331;49.252;8.904;2023-03-29T03:51:47;99910.06;;;7.22;72.17
60489;BME280;46331;49.252;8.904;2023-03-29T03:52:27;99914.34;;;7.16;72.03
60489;BME280;46331;49.252;8.904;2023-03-29T03:53:08;99910.84;;;7.22;72.46
60489;BME280;46331;49.252;8.904;2023-03-29T03:54:08;99915.97;;;7.17;71.71
60489;BME280;46331;49.252;8.904;2023-03-29T03:54:49;99915.75;;;7.19;72.12
60489;BME280;46331;49.252;8.904;2023-03-29T03:56:02;99913.31;;;7.17;71.67
60489;BME280;46331;49.252;8.904;2023-03-29T03:56:49;99915.97;;;7.17;71.50
60489;BME280;46331;49.252;8.904;2023-03-29T03:57:40;99912.09;;;7.20;72.04
60489;BME280;46331;49.252;8.904;2023-03-29T03:58:26;99913.69;;;7.21;71.62
60489;BME280;46331;49.252;8.904;2023-03-29T03:59:06;99912.69;;;7.22;71.84
60489;BME280;46331;49.252;8.904;2023-03-29T03:59:54;99913.13;;;7.19;71.73
60489;BME280;46331;49.252;8.904;2023-03-29T04:00:53;99908.69;;;7.12;72.51
60489;BME280;46331;49.252;8.904;2023-03-29T04:02:00;99916.41;;;7.07;73.42
60489;BME280;46331;49.252;8.904;2023-03-29T04:02:40;99916.41;;;7.07;73.94
60489;BME280;46331;49.252;8.904;2023-03-29T04:03:21;99918.22;;;7.13;73.87
60489;BME280;46331;49.252;8.904;2023-03-29T04:04:02;99913.31;;;7.17;73.89
60489;BME280;46331;49.252;8.904;2023-03-29T04:04:43;99914.94;;;7.18;73.70
60489;BME280;46331;49.252;8.904;2023-03-29T04:05:27;99922.66;;;7.20;72.90
60489;BME280;46331;49.252;8.904;2023-03-29T04:06:08;99912.91;;;7.20;73.01
60489;BME280;46331;49.252;8.904;2023-03-29T04:07:07;99911.06;;;7.21;73.45
60489;BME280;46331;49.252;8.904;2023-03-29T04:08:13;99907.63;;;7.20;73.04
60489;BME280;46331;49.252;8.904;2023-03-29T04:09:23;99911.69;;;7.23;72.92
60489;BME280;46331;49.252;8.904;2023-03-29T04:10:16;99915.53;;;7.20;72.91
60489;BME280;46331;49.252;8.904;2023-03-29T04:10:57;99920.50;;;6.96;73.87
60489;BME280;46331;49.252;8.904;2023-03-29T04:11:43;99925.03;;;6.83;74.88
60489;BME280;46331;49.252;8.904;2023-03-29T04:12:25;99924.63;;;6.72;75.71
60489;BME280;46331;49.252;8.904;2023-03-29T04:13:06;99928.69;;;6.75;76.29
60489;BME280;46331;49.252;8.904;2023-03-29T04:13:51;99924.03;;;6.63;77.02
60489;BME280;46331;49.252;8.904;2023-03-29T04:14:43;99933.53;;;6.71;76.99
60489;BME280;46331;49.252;8.904;2023-03-29T04:15:31;99922.19;;;6.84;76.63